Time;durP1;ratioP1;P1;durP2;ratioP2;P2;SDS_P1;SDS_P2;PMS_P1;PMS_P2;Temp;Humidity;BMP_temperature;BMP_pressure;BME280_temperature;BME280_humidity;BME280_pressure;Samples;Min_cycle;Max_cycle;Signal;HPM_P1;HPM_P2
2022/10/15 08:06:18;;;;;;;6.00;5.50;;;16.70;99.90;;;;;;5244347;22;20500;-50
2022/10/15 08:08:43;;;;;;;7.30;6.70;;;16.90;99.90;;;;;;5078602;28;20439;-46
2022/10/15 08:11:15;;;;;;;6.67;6.10;;;16.90;99.90;;;;;;5084609;28;20189;-48
2022/10/15 08:13:42;;;;;;;5.93;5.43;;;16.90;99.90;;;;;;5087257;28;20216;-48
2022/10/15 08:16:14;;;;;;;7.07;6.47;;;17.00;99.90;;;;;;5088940;28;20506;-51
2022/10/15 08:18:40;;;;;;;7.00;6.10;;;17.00;99.90;;;;;;5079952;28;20467;-50
2022/10/15 08:21:07;;;;;;;6.90;6.20;;;17.00;99.90;;;;;;5080622;28;20426;-49
2022/10/15 08:23:33;;;;;;;6.40;5.80;;;17.00;99.90;;;;;;5080478;28;20422;-48
2022/10/15 08:25:59;;;;;;;6.50;6.00;;;16.80;99.90;;;;;;5080151;28;21059;-52
2022/10/15 08:28:26;;;;;;;6.60;6.00;;;16.80;99.90;;;;;;5075723;28;20480;-51
2022/10/15 08:30:52;;;;;;;6.60;6.00;;;16.90;99.90;;;;;;5079083;28;20492;-51
2022/10/15 08:33:17;;;;;;;7.10;6.50;;;16.80;99.90;;;;;;5080212;28;20422;-52
2022/10/15 08:35:43;;;;;;;6.80;6.10;;;16.70;99.90;;;;;;5080246;28;20218;-52
2022/10/15 08:38:12;;;;;;;6.60;6.00;;;16.70;99.90;;;;;;5080060;28;20202;-47
2022/10/15 08:40:41;;;;;;;6.50;5.90;;;16.60;99.90;;;;;;5080079;28;20361;-50
2022/10/15 08:43:26;;;;;;;6.30;5.80;;;16.60;99.90;;;;;;5079190;28;20606;-47
2022/10/15 08:45:57;;;;;;;6.27;5.77;;;16.70;99.90;;;;;;5080153;28;20426;-50
2022/10/15 08:48:37;;;;;;;6.67;6.17;;;16.80;99.90;;;;;;5079005;28;20935;-51
2022/10/15 08:51:09;;;;;;;5.60;5.10;;;16.90;99.90;;;;;;5079403;28;20441;-50
2022/10/15 08:53:41;;;;;;;5.73;5.27;;;17.00;99.90;;;;;;5078841;28;20946;-51
2022/10/15 08:56:21;;;;;;;6.27;5.43;;;17.00;99.90;;;;;;5078074;28;20439;-54
2022/10/15 08:59:11;;;;;;;6.93;6.33;;;17.00;99.90;;;;;;5080328;28;20421;-50
2022/10/15 09:01:54;;;;;;;5.80;5.30;;;17.00;99.90;;;;;;5079448;28;20974;-54
2022/10/15 09:04:22;;;;;;;6.07;5.47;;;17.00;99.90;;;;;;5078422;28;20757;-50
2022/10/15 09:06:54;;;;;;;4.93;4.53;;;17.10;99.90;;;;;;5072346;28;20466;-51
2022/10/15 09:09:32;;;;;;;5.63;5.00;;;17.00;99.90;;;;;;5055242;28;20497;-49
2022/10/15 09:12:07;;;;;;;5.57;4.90;;;17.00;99.90;;;;;;5084505;28;20540;-50
2022/10/15 09:14:43;;;;;;;4.97;4.57;;;17.10;99.90;;;;;;5059582;28;20434;-50
2022/10/15 09:17:24;;;;;;;5.10;4.70;;;17.20;99.90;;;;;;5077714;28;20454;-53
2022/10/15 09:19:53;;;;;;;5.93;5.43;;;17.20;99.90;;;;;;5091933;28;20930;-47
2022/10/15 09:22:23;;;;;;;6.10;5.60;;;17.20;99.90;;;;;;5083821;28;20490;-50
2022/10/15 09:24:49;;;;;;;5.63;4.50;;;17.50;99.90;;;;;;5088879;28;20495;-50
2022/10/15 09:27:29;;;;;;;5.10;4.60;;;17.60;99.90;;;;;;5083084;28;21139;-50
2022/10/15 09:30:03;;;;;;;5.47;5.07;;;17.80;99.90;;;;;;5086986;28;20181;-50
2022/10/15 09:32:57;;;;;;;4.93;4.43;;;17.80;99.90;;;;;;5084021;28;20450;-50
2022/10/15 09:35:28;;;;;;;5.80;5.30;;;18.00;99.90;;;;;;5081892;28;20826;-51
2022/10/15 09:37:57;;;;;;;5.50;5.00;;;18.10;99.90;;;;;;5088003;28;20434;-53
2022/10/15 09:40:49;;;;;;;5.63;5.13;;;18.20;99.90;;;;;;5086804;28;20525;-47
2022/10/15 09:43:26;;;;;;;5.83;5.33;;;18.10;99.90;;;;;;5083377;28;20562;-53
2022/10/15 09:45:51;;;;;;;5.60;5.10;;;18.20;99.90;;;;;;5072596;28;21040;-48
2022/10/15 09:48:19;;;;;;;5.70;5.20;;;18.30;99.90;;;;;;5069827;28;20443;-51
2022/10/15 09:51:24;;;;;;;5.70;5.20;;;18.30;99.90;;;;;;5089519;28;20915;-49
2022/10/15 09:54:12;;;;;;;6.43;5.93;;;18.40;99.90;;;;;;5089721;28;20442;-51
2022/10/15 09:56:44;;;;;;;6.40;5.80;;;18.40;99.90;;;;;;5078177;28;20457;-53
2022/10/15 09:59:16;;;;;;;6.00;5.53;;;18.30;99.90;;;;;;5084976;28;20892;-53
2022/10/15 10:01:59;;;;;;;6.17;5.67;;;18.20;99.90;;;;;;5089953;28;20466;-51
2022/10/15 10:04:31;;;;;;;6.77;6.10;;;18.20;99.90;;;;;;5079272;28;20410;-54
2022/10/15 10:06:59;;;;;;;5.90;5.40;;;18.30;99.90;;;;;;5089187;28;20553;-52
2022/10/15 10:09:30;;;;;;;6.30;5.70;;;18.40;99.90;;;;;;5090720;28;20839;-48
2022/10/15 10:12:02;;;;;;;5.40;5.00;;;18.60;99.90;;;;;;5090966;28;20487;-51
2022/10/15 10:14:32;;;;;;;5.70;5.30;;;18.50;99.90;;;;;;5073292;28;20457;-51
2022/10/15 10:17:17;;;;;;;6.07;5.57;;;18.50;99.90;;;;;;5083917;28;20438;-50
2022/10/15 10:19:45;;;;;;;5.40;5.00;;;18.60;99.90;;;;;;5084814;28;20444;-49
2022/10/15 10:22:18;;;;;;;5.67;5.27;;;18.60;99.90;;;;;;5084666;28;20472;-50
2022/10/15 10:24:46;;;;;;;5.60;5.10;;;18.50;99.90;;;;;;5083862;28;20931;-50
2022/10/15 10:27:28;;;;;;;5.73;5.23;;;18.50;99.90;;;;;;5082439;28;20915;-51
2022/10/15 10:30:01;;;;;;;5.57;5.17;;;18.60;99.90;;;;;;5083510;28;20431;-49
2022/10/15 10:32:30;;;;;;;6.63;5.50;;;18.50;99.90;;;;;;5082622;28;20461;-48
2022/10/15 10:34:58;;;;;;;6.23;5.73;;;18.40;99.90;;;;;;5063116;28;20442;-53
2022/10/15 10:37:24;;;;;;;6.27;5.77;;;18.50;99.90;;;;;;5080054;28;20792;-53
2022/10/15 10:39:58;;;;;;;5.97;5.47;;;18.60;99.90;;;;;;5073996;28;20525;-52
2022/10/15 10:42:36;;;;;;;5.70;5.23;;;18.60;99.90;;;;;;5083468;28;20463;-48
2022/10/15 10:45:16;;;;;;;5.53;5.03;;;18.80;99.90;;;;;;5083835;28;20410;-49
2022/10/15 10:47:42;;;;;;;5.87;5.43;;;18.80;99.90;;;;;;5089404;28;20440;-53
2022/10/15 10:50:27;;;;;;;4.97;4.57;;;18.90;99.90;;;;;;5091194;28;20433;-52
2022/10/15 10:52:53;;;;;;;5.30;4.90;;;19.10;99.90;;;;;;5091291;28;20184;-52
2022/10/15 10:55:24;;;;;;;5.33;4.83;;;19.10;99.90;;;;;;5090288;28;20495;-52
2022/10/15 10:57:51;;;;;;;5.70;5.30;;;19.10;99.90;;;;;;5090898;28;20183;-53
2022/10/15 11:00:35;;;;;;;5.30;4.90;;;19.20;99.90;;;;;;5074908;28;20497;-49
2022/10/15 11:03:01;;;;;;;6.00;5.50;;;19.40;99.90;;;;;;5088627;28;20459;-53
2022/10/15 11:05:30;;;;;;;5.03;4.53;;;19.50;99.90;;;;;;5090263;28;20475;-50
2022/10/15 11:08:02;;;;;;;5.27;4.87;;;19.50;99.90;;;;;;5090027;28;20203;-53
2022/10/15 11:10:42;;;;;;;5.40;5.00;;;19.60;99.90;;;;;;5089512;28;20920;-49
2022/10/15 11:13:29;;;;;;;5.70;5.20;;;19.70;99.90;;;;;;5087713;28;20911;-52
2022/10/15 11:16:15;;;;;;;5.63;5.23;;;19.80;99.90;;;;;;5089690;28;20464;-49
2022/10/15 11:18:58;;;;;;;5.37;4.97;;;19.90;99.90;;;;;;5090310;28;20750;-50
2022/10/15 11:21:42;;;;;;;5.57;5.07;;;19.80;99.90;;;;;;5090462;28;20410;-50
2022/10/15 11:24:13;;;;;;;5.73;4.87;;;19.90;99.90;;;;;;5090552;28;20805;-52
2022/10/15 11:27:17;;;;;;;5.10;4.70;;;19.90;99.90;;;;;;5090439;28;20454;-52
2022/10/15 11:30:01;;;;;;;4.93;4.53;;;19.80;99.90;;;;;;5090556;28;20406;-49
2022/10/15 11:32:38;;;;;;;5.03;4.63;;;19.70;99.90;;;;;;5090130;28;20429;-52
2022/10/15 11:35:30;;;;;;;4.47;4.17;;;19.70;99.90;;;;;;5094831;28;20447;-49
2022/10/15 11:38:18;;;;;;;4.70;4.30;;;19.50;99.90;;;;;;5076357;28;20483;-51
2022/10/15 11:40:54;;;;;;;5.90;5.50;;;19.40;99.90;;;;;;5090044;28;20554;-49
2022/10/15 11:43:25;;;;;;;5.50;5.10;;;19.50;99.90;;;;;;5088806;28;20478;-51
2022/10/15 11:46:24;;;;;;;6.50;5.90;;;19.40;99.90;;;;;;5090037;28;20761;-54
2022/10/15 11:49:07;;;;;;;4.87;4.50;;;19.40;99.90;;;;;;5090156;28;20449;-50
2022/10/15 11:51:38;;;;;;;5.00;4.60;;;19.50;99.90;;;;;;5090029;28;20434;-49
2022/10/15 11:54:12;;;;;;;5.53;5.13;;;19.50;99.90;;;;;;5088976;28;20446;-53
2022/10/15 11:56:44;;;;;;;5.03;4.63;;;19.40;99.90;;;;;;5087622;28;20526;-51
2022/10/15 11:59:18;;;;;;;5.90;5.40;;;19.40;99.90;;;;;;5089907;28;21298;-52
2022/10/15 12:01:51;;;;;;;5.40;5.00;;;19.30;99.90;;;;;;5089680;28;20462;-47
2022/10/15 12:04:37;;;;;;;5.57;5.07;;;19.20;99.90;;;;;;5089796;28;20781;-54
2022/10/15 12:07:05;;;;;;;6.17;5.67;;;19.10;99.90;;;;;;5088484;28;20494;-53
2022/10/15 12:09:35;;;;;;;5.00;4.60;;;19.10;99.90;;;;;;5089493;28;20417;-50
2022/10/15 12:12:05;;;;;;;5.50;5.00;;;19.20;99.90;;;;;;5088514;28;20477;-52
2022/10/15 12:14:49;;;;;;;5.47;5.00;;;19.30;99.90;;;;;;5081212;28;20429;-51
2022/10/15 12:17:14;;;;;;;5.13;4.47;;;19.40;99.90;;;;;;5089042;28;20434;-53
2022/10/15 12:19:47;;;;;;;5.60;5.10;;;19.40;99.90;;;;;;5089492;28;20750;-51
2022/10/15 12:22:29;;;;;;;5.37;4.97;;;19.40;99.90;;;;;;5089245;28;20212;-47
2022/10/15 12:24:55;;;;;;;6.00;5.50;;;19.60;99.90;;;;;;5089332;28;20421;-52
2022/10/15 12:27:33;;;;;;;7.30;6.80;;;19.60;99.90;;;;;;5089333;28;20794;-50
2022/10/15 12:30:01;;;;;;;5.50;5.10;;;19.60;99.90;;;;;;5089813;28;20187;-52
2022/10/15 12:32:44;;;;;;;5.50;5.10;;;19.60;99.90;;;;;;5089274;28;20466;-53
2022/10/15 12:35:13;;;;;;;5.40;5.00;;;19.70;99.90;;;;;;5086441;28;20433;-51
2022/10/15 12:37:39;;;;;;;5.70;5.20;;;19.70;99.90;;;;;;5088245;28;20442;-48
2022/10/15 12:40:22;;;;;;;4.97;4.47;;;19.80;99.90;;;;;;5087733;28;20434;-52
2022/10/15 12:43:16;;;;;;;5.53;5.03;;;19.90;99.90;;;;;;5084900;28;20463;-48
2022/10/15 12:45:59;;;;;;;5.97;5.43;;;20.00;99.90;;;;;;5087974;28;20434;-49
2022/10/15 12:48:45;;;;;;;6.10;5.70;;;20.30;99.90;;;;;;5087496;28;20508;-52
2022/10/15 12:51:22;;;;;;;5.20;4.80;;;20.30;99.90;;;;;;5072481;28;20434;-52
2022/10/15 12:53:56;;;;;;;5.53;5.10;;;20.10;99.90;;;;;;5092886;28;20430;-47
2022/10/15 12:56:24;;;;;;;5.73;5.30;;;19.90;99.90;;;;;;5092025;28;20443;-52
2022/10/15 12:58:54;;;;;;;5.10;4.70;;;19.80;99.90;;;;;;5090523;28;20415;-51
2022/10/15 13:01:20;;;;;;;6.80;6.03;;;19.80;99.90;;;;;;5092588;28;20427;-50
2022/10/15 13:03:51;;;;;;;6.83;6.20;;;19.50;99.90;;;;;;5091812;28;20445;-49
2022/10/15 13:06:19;;;;;;;6.23;5.70;;;19.30;99.90;;;;;;5091432;28;20246;-54
2022/10/15 13:08:47;;;;;;;6.37;5.77;;;19.10;99.90;;;;;;5092965;28;20459;-50
2022/10/15 13:11:52;;;;;;;5.90;5.40;;;19.10;99.90;;;;;;5091646;28;20497;-53
2022/10/15 13:14:37;;;;;;;6.87;6.27;;;19.30;99.90;;;;;;5087575;28;20489;-48
2022/10/15 13:17:33;;;;;;;6.33;5.77;;;19.30;99.90;;;;;;5083635;28;20424;-50
2022/10/15 13:20:06;;;;;;;5.90;5.40;;;19.40;99.90;;;;;;5073277;28;20438;-51
2022/10/15 13:22:34;;;;;;;5.40;5.00;;;19.70;99.90;;;;;;5089582;28;21001;-51
2022/10/15 13:25:00;;;;;;;5.60;5.10;;;20.70;99.90;;;;;;5091774;28;20430;-53
2022/10/15 13:27:38;;;;;;;4.63;4.23;;;21.80;99.90;;;;;;5092105;28;20618;-51
2022/10/15 13:30:08;;;;;;;4.80;4.40;;;22.70;99.90;;;;;;5091856;28;20437;-52
2022/10/15 13:32:37;;;;;;;4.53;4.13;;;23.70;99.90;;;;;;5095380;28;20445;-52
2022/10/15 13:35:10;;;;;;;4.80;4.50;;;24.30;99.90;;;;;;5093223;28;20533;-51
2022/10/15 13:37:39;;;;;;;4.77;4.47;;;24.80;99.90;;;;;;5078953;28;20418;-52
2022/10/15 13:40:05;;;;;;;5.10;4.73;;;25.30;99.90;;;;;;5091009;28;20777;-56
2022/10/15 13:42:31;;;;;;;5.20;4.90;;;25.70;99.70;;;;;;5091998;28;20877;-53
2022/10/15 13:45:14;;;;;;;4.90;4.60;;;25.40;99.20;;;;;;5090894;28;20441;-50
2022/10/15 13:47:48;;;;;;;6.33;4.77;;;25.10;99.90;;;;;;5086225;28;20634;-51
2022/10/15 13:50:23;;;;;;;5.33;4.93;;;24.30;99.90;;;;;;5088850;28;20949;-49
2022/10/15 13:52:51;;;;;;;5.97;5.47;;;23.70;99.90;;;;;;5092295;28;20425;-51
2022/10/15 13:55:20;;;;;;;5.63;5.23;;;23.30;99.90;;;;;;5090848;28;20531;-52
2022/10/15 13:57:47;;;;;;;6.00;5.60;;;23.00;99.90;;;;;;5091403;28;20434;-51
2022/10/15 14:00:25;;;;;;;9.90;5.70;;;22.90;99.90;;;;;;5091807;28;20449;-50
2022/10/15 14:03:19;;;;;;;6.80;6.30;;;22.80;99.90;;;;;;5089390;28;20523;-55
2022/10/15 14:05:46;;;;;;;6.50;6.00;;;22.70;99.90;;;;;;5078273;28;20667;-52
2022/10/15 14:08:16;;;;;;;7.43;6.27;;;22.60;99.90;;;;;;5090270;28;20438;-51
2022/10/15 14:10:41;;;;;;;7.73;7.03;;;22.30;99.90;;;;;;5088303;28;20439;-49
2022/10/15 14:13:09;;;;;;;7.90;7.20;;;22.10;99.90;;;;;;5080269;28;20427;-50
2022/10/15 14:16:05;;;;;;;6.60;6.10;;;21.60;99.90;;;;;;5088621;28;20192;-54
2022/10/15 14:18:37;;;;;;;7.40;6.77;;;21.50;99.90;;;;;;5087475;28;20434;-51
2022/10/15 14:21:11;;;;;;;7.03;6.53;;;22.00;99.90;;;;;;5090623;28;20443;-52
2022/10/15 14:23:37;;;;;;;7.80;7.30;;;22.50;99.90;;;;;;5090041;28;20502;-51
2022/10/15 14:26:03;;;;;;;7.00;6.40;;;23.10;99.90;;;;;;5100061;28;20441;-48
2022/10/15 14:28:32;;;;;;;7.20;6.70;;;23.70;99.90;;;;;;5089342;28;20418;-50
2022/10/15 14:30:59;;;;;;;7.73;7.13;;;23.80;99.90;;;;;;5088510;28;20567;-50
2022/10/15 14:33:32;;;;;;;7.40;6.90;;;23.70;99.90;;;;;;5084821;28;20442;-52
2022/10/15 14:36:07;;;;;;;7.30;6.80;;;23.60;99.90;;;;;;5093051;28;21171;-50
2022/10/15 14:38:33;;;;;;;7.20;6.60;;;23.30;99.90;;;;;;5090278;28;20470;-53
2022/10/15 14:41:24;;;;;;;7.60;6.90;;;23.00;99.90;;;;;;5078326;28;20434;-54
2022/10/15 14:44:09;;;;;;;9.60;8.90;;;22.50;99.90;;;;;;5090068;28;20210;-50
2022/10/15 14:46:40;;;;;;;10.47;9.67;;;22.00;99.90;;;;;;5079856;28;20403;-53
2022/10/15 14:49:22;;;;;;;8.10;7.50;;;21.60;99.90;;;;;;5090151;28;20465;-52
2022/10/15 14:52:02;;;;;;;6.87;6.37;;;21.50;99.90;;;;;;5090668;28;20417;-54
2022/10/15 14:54:40;;;;;;;7.70;7.10;;;21.30;99.90;;;;;;5085584;28;20417;-52
2022/10/15 14:57:22;;;;;;;7.57;6.97;;;21.20;99.90;;;;;;5081375;28;21353;-53
2022/10/15 14:59:53;;;;;;;7.40;6.80;;;21.10;99.90;;;;;;5080860;28;20471;-52
2022/10/15 15:02:19;;;;;;;8.17;7.37;;;20.90;99.90;;;;;;5081950;28;20470;-53
2022/10/15 15:05:02;;;;;;;7.63;6.83;;;20.70;99.90;;;;;;5081057;28;20542;-52
2022/10/15 15:07:28;;;;;;;7.47;6.77;;;20.80;99.90;;;;;;5080574;28;20478;-50
2022/10/15 15:09:53;;;;;;;7.90;7.30;;;20.80;99.90;;;;;;5081090;28;20453;-50
2022/10/15 15:12:23;;;;;;;7.83;7.20;;;20.80;99.90;;;;;;5081670;28;20341;-50
2022/10/15 15:14:49;;;;;;;8.90;8.00;;;20.70;99.90;;;;;;5080891;28;20795;-51
2022/10/15 15:17:18;;;;;;;9.10;8.40;;;20.60;99.90;;;;;;5081228;28;20991;-49
2022/10/15 15:19:43;;;;;;;9.33;8.63;;;20.40;99.90;;;;;;5079869;28;20427;-52
2022/10/15 15:22:16;;;;;;;9.50;8.70;;;20.30;99.90;;;;;;5081837;28;20458;-54
2022/10/15 15:24:42;;;;;;;10.13;9.13;;;20.20;99.90;;;;;;5081944;28;20179;-48
2022/10/15 15:27:27;;;;;;;8.90;8.10;;;20.00;99.90;;;;;;5081391;28;20413;-50
2022/10/15 15:29:53;;;;;;;8.13;7.43;;;19.90;99.90;;;;;;5080705;28;20187;-46
2022/10/15 15:32:20;;;;;;;8.53;7.83;;;19.70;99.90;;;;;;5081590;28;20421;-53
2022/10/15 15:34:47;;;;;;;9.00;8.20;;;19.40;99.90;;;;;;5080060;28;20449;-51
2022/10/15 15:37:19;;;;;;;8.47;7.73;;;19.30;99.90;;;;;;5085662;28;20438;-52
2022/10/15 15:39:45;;;;;;;9.30;8.40;;;19.20;99.90;;;;;;5088837;28;20771;-50
2022/10/15 15:42:20;;;;;;;8.17;7.43;;;19.10;99.90;;;;;;5087691;28;20470;-53
2022/10/15 15:44:46;;;;;;;8.03;7.33;;;18.90;99.90;;;;;;5086900;28;20488;-50
2022/10/15 15:47:12;;;;;;;7.80;7.10;;;18.80;99.90;;;;;;5069189;28;20447;-51
2022/10/15 15:49:38;;;;;;;9.10;8.30;;;18.70;99.90;;;;;;5086519;28;20446;-50
2022/10/15 15:52:07;;;;;;;8.37;7.57;;;18.60;99.90;;;;;;5087669;28;20803;-51
2022/10/15 15:54:33;;;;;;;8.97;8.07;;;18.50;99.90;;;;;;5082416;28;20442;-54
2022/10/15 15:56:58;;;;;;;9.17;8.40;;;18.30;99.90;;;;;;5088864;28;20433;-50
2022/10/15 15:59:24;;;;;;;8.90;8.00;;;18.30;99.90;;;;;;5088551;28;20739;-50
2022/10/15 16:01:49;;;;;;;9.43;8.63;;;18.10;99.90;;;;;;5088985;28;20208;-51
2022/10/15 16:04:16;;;;;;;9.53;8.63;;;17.90;99.90;;;;;;5085539;28;20192;-52
2022/10/15 16:06:42;;;;;;;9.90;8.70;;;17.80;99.90;;;;;;5091244;28;20702;-47
2022/10/15 16:09:08;;;;;;;10.60;9.67;;;17.70;99.90;;;;;;5087955;28;20490;-51
2022/10/15 16:11:36;;;;;;;9.60;8.70;;;17.60;99.90;;;;;;5085695;28;20407;-53
2022/10/15 16:14:02;;;;;;;12.60;8.83;;;17.50;99.90;;;;;;5083502;28;20473;-52
2022/10/15 16:16:28;;;;;;;10.47;9.47;;;17.50;99.90;;;;;;5088896;28;20430;-52
2022/10/15 16:18:53;;;;;;;11.00;9.93;;;17.40;99.90;;;;;;5087676;28;20242;-51
2022/10/15 16:21:23;;;;;;;10.13;9.13;;;17.20;99.90;;;;;;5089341;28;20285;-50
2022/10/15 16:23:49;;;;;;;11.33;10.23;;;17.10;99.90;;;;;;5086075;28;20216;-49
2022/10/15 16:26:15;;;;;;;11.03;9.87;;;17.00;99.90;;;;;;5088980;28;20477;-51
2022/10/15 16:28:41;;;;;;;11.43;10.33;;;16.90;99.90;;;;;;5087818;28;20295;-52
2022/10/15 16:31:22;;;;;;;10.73;9.73;;;16.80;99.90;;;;;;5089214;28;21292;-54
2022/10/15 16:33:48;;;;;;;11.20;10.10;;;16.70;99.90;;;;;;5082740;28;20454;-54
2022/10/15 16:36:14;;;;;;;11.03;10.03;;;16.60;99.90;;;;;;5083022;28;20419;-50
2022/10/15 16:38:41;;;;;;;11.13;9.97;;;16.60;99.90;;;;;;5088972;28;20417;-51
2022/10/15 16:41:08;;;;;;;13.00;10.97;;;16.40;99.90;;;;;;5091152;28;20465;-49
2022/10/15 16:43:34;;;;;;;10.93;9.73;;;16.30;99.90;;;;;;5088726;28;20458;-54
2022/10/15 16:46:01;;;;;;;12.03;10.87;;;16.30;99.90;;;;;;5087846;28;20425;-50
2022/10/15 16:48:28;;;;;;;11.40;10.20;;;16.20;99.90;;;;;;5086095;28;20838;-54
2022/10/15 16:51:08;;;;;;;12.43;11.20;;;16.10;99.90;;;;;;5096393;28;20480;-52
2022/10/15 16:53:36;;;;;;;13.80;12.50;;;16.10;99.90;;;;;;5087585;28;20536;-49
2022/10/15 16:56:03;;;;;;;14.30;12.80;;;16.00;99.90;;;;;;5087653;28;20454;-53
2022/10/15 16:58:30;;;;;;;16.07;14.50;;;16.00;99.90;;;;;;5087290;28;20444;-50
2022/10/15 17:01:00;;;;;;;17.50;15.77;;;15.90;99.90;;;;;;5081863;28;20808;-47
2022/10/15 17:03:28;;;;;;;15.73;13.90;;;15.90;99.90;;;;;;5087771;28;20515;-51
2022/10/15 17:05:58;;;;;;;16.50;14.80;;;15.80;99.90;;;;;;5086669;28;20496;-50
2022/10/15 17:08:27;;;;;;;17.43;15.27;;;15.80;99.90;;;;;;5087539;28;20792;-52
2022/10/15 17:10:53;;;;;;;17.57;15.87;;;15.80;99.90;;;;;;5086121;28;20821;-54
2022/10/15 17:13:19;;;;;;;16.40;14.80;;;15.80;99.90;;;;;;5086910;28;20441;-48
2022/10/15 17:15:45;;;;;;;17.17;15.47;;;15.80;99.90;;;;;;5068862;28;20560;-50
2022/10/15 17:18:11;;;;;;;15.83;14.33;;;15.80;99.90;;;;;;5087273;28;20195;-48
2022/10/15 17:20:43;;;;;;;18.30;16.07;;;15.70;99.90;;;;;;5087065;28;20819;-52
2022/10/15 17:23:09;;;;;;;17.23;15.50;;;15.70;99.90;;;;;;5084761;28;20211;-51
2022/10/15 17:25:35;;;;;;;18.60;15.70;;;15.70;99.90;;;;;;5088035;28;20934;-50
2022/10/15 17:28:00;;;;;;;17.50;15.80;;;15.60;99.90;;;;;;5086303;28;20238;-48
2022/10/15 17:30:26;;;;;;;18.20;16.40;;;15.70;99.90;;;;;;5081574;28;20526;-50
2022/10/15 17:32:51;;;;;;;17.73;15.93;;;15.60;99.90;;;;;;5088399;28;20287;-51
2022/10/15 17:35:17;;;;;;;18.63;16.03;;;15.50;99.90;;;;;;5087929;28;20639;-48
2022/10/15 17:37:43;;;;;;;19.73;17.20;;;15.50;99.90;;;;;;5089639;28;20189;-51
2022/10/15 17:40:09;;;;;;;18.33;16.30;;;15.50;99.90;;;;;;5091442;28;20196;-52
2022/10/15 17:42:35;;;;;;;17.90;16.03;;;15.50;99.90;;;;;;5090142;28;20468;-49
2022/10/15 17:45:01;;;;;;;17.40;15.50;;;15.50;99.90;;;;;;5090389;28;20543;-49
2022/10/15 17:47:26;;;;;;;20.40;16.10;;;15.40;99.90;;;;;;5090951;28;20465;-53
2022/10/15 17:49:52;;;;;;;18.30;16.40;;;15.40;99.90;;;;;;5091962;28;20891;-54
2022/10/15 17:52:18;;;;;;;17.27;15.47;;;15.30;99.90;;;;;;5091808;28;20193;-48
2022/10/15 17:54:44;;;;;;;16.70;15.00;;;15.30;99.90;;;;;;5091595;28;20187;-48
2022/10/15 17:57:09;;;;;;;17.80;16.00;;;15.20;99.90;;;;;;5090233;28;20190;-51
2022/10/15 17:59:35;;;;;;;17.70;15.80;;;15.20;99.90;;;;;;5089138;28;20917;-49
2022/10/15 18:02:00;;;;;;;16.17;14.40;;;15.10;99.90;;;;;;5091298;28;20207;-49
2022/10/15 18:04:28;;;;;;;17.13;15.30;;;15.10;99.90;;;;;;5090163;28;20178;-53
2022/10/15 18:06:53;;;;;;;18.40;15.10;;;15.00;99.90;;;;;;5080909;28;20278;-50
2022/10/15 18:09:19;;;;;;;19.23;17.23;;;15.00;99.90;;;;;;5087826;28;20466;-50
2022/10/15 18:11:45;;;;;;;16.07;14.10;;;14.90;99.90;;;;;;5090106;28;20201;-50
2022/10/15 18:14:10;;;;;;;17.70;14.73;;;14.90;99.90;;;;;;5091350;28;20187;-48
2022/10/15 18:16:36;;;;;;;16.60;14.83;;;14.90;99.90;;;;;;5088221;28;20194;-51
2022/10/15 18:19:01;;;;;;;16.83;15.03;;;14.90;99.90;;;;;;5091200;28;20274;-46
2022/10/15 18:21:27;;;;;;;16.90;14.93;;;14.80;99.90;;;;;;5090758;28;20192;-52
2022/10/15 18:23:55;;;;;;;16.43;14.67;;;14.80;99.90;;;;;;5090972;28;20334;-48
2022/10/15 18:26:21;;;;;;;15.93;14.33;;;14.80;99.90;;;;;;5090887;28;20733;-49
2022/10/15 18:28:49;;;;;;;16.40;14.80;;;14.70;99.90;;;;;;5091132;28;20420;-51
2022/10/15 18:31:15;;;;;;;17.40;15.60;;;14.70;99.90;;;;;;5090429;28;20422;-54
2022/10/15 18:33:47;;;;;;;17.10;15.30;;;14.60;99.90;;;;;;5089886;28;20444;-49
2022/10/15 18:36:15;;;;;;;17.53;15.17;;;14.60;99.90;;;;;;5089676;28;20434;-48
2022/10/15 18:38:44;;;;;;;18.50;16.43;;;14.60;99.90;;;;;;5089647;28;20920;-52
2022/10/15 18:41:17;;;;;;;17.90;14.93;;;14.50;99.90;;;;;;5090670;28;20442;-51
2022/10/15 18:43:43;;;;;;;17.60;15.73;;;14.50;99.90;;;;;;5090558;28;20471;-50
2022/10/15 18:46:09;;;;;;;16.97;15.27;;;14.50;99.90;;;;;;5090315;28;20454;-50
2022/10/15 18:48:36;;;;;;;17.63;15.37;;;14.50;99.90;;;;;;5072151;28;20977;-49
2022/10/15 18:51:05;;;;;;;16.90;15.10;;;14.40;99.90;;;;;;5088625;28;20447;-50
2022/10/15 18:53:32;;;;;;;16.03;14.43;;;14.40;99.90;;;;;;5088946;28;20455;-51
2022/10/15 18:55:58;;;;;;;17.03;15.27;;;14.40;99.90;;;;;;5088644;28;20459;-50
2022/10/15 18:58:23;;;;;;;18.10;16.30;;;14.40;99.90;;;;;;5089582;28;20555;-51
2022/10/15 19:00:49;;;;;;;20.40;17.80;;;14.40;99.90;;;;;;5090399;28;20206;-49
2022/10/15 19:03:14;;;;;;;18.73;16.87;;;14.30;99.90;;;;;;5089971;28;20955;-49
2022/10/15 19:05:40;;;;;;;20.97;18.93;;;14.30;99.90;;;;;;5087990;28;20228;-45
2022/10/15 19:08:06;;;;;;;20.53;18.33;;;14.30;99.90;;;;;;5096221;28;20325;-51
2022/10/15 19:10:31;;;;;;;19.20;17.20;;;14.30;99.90;;;;;;5090212;28;20237;-53
2022/10/15 19:12:57;;;;;;;19.20;16.80;;;14.20;99.90;;;;;;5089760;28;20237;-51
2022/10/15 19:15:23;;;;;;;19.60;17.50;;;14.30;99.90;;;;;;5090346;28;20196;-50
2022/10/15 19:17:48;;;;;;;19.03;17.13;;;14.30;99.90;;;;;;5089829;28;20306;-49
2022/10/15 19:20:14;;;;;;;20.03;18.03;;;14.20;99.90;;;;;;5071680;28;20188;-51
2022/10/15 19:22:39;;;;;;;19.90;17.57;;;14.20;99.90;;;;;;5089813;28;20279;-52
2022/10/15 19:25:05;;;;;;;20.47;17.40;;;14.20;99.90;;;;;;5089236;28;20199;-50
2022/10/15 19:27:32;;;;;;;21.37;18.50;;;14.20;99.90;;;;;;5089040;28;20318;-50
2022/10/15 19:29:57;;;;;;;21.00;18.30;;;14.20;99.90;;;;;;5077039;28;20886;-49
2022/10/15 19:32:23;;;;;;;19.40;17.30;;;14.20;99.90;;;;;;5089617;28;20426;-49
2022/10/15 19:34:48;;;;;;;20.67;17.73;;;14.30;99.90;;;;;;5088082;28;20730;-53
2022/10/15 19:37:14;;;;;;;20.00;17.90;;;14.30;99.90;;;;;;5079001;28;20200;-53
2022/10/15 19:39:40;;;;;;;21.60;18.30;;;14.20;99.90;;;;;;5087054;28;20193;-53
2022/10/15 19:42:05;;;;;;;20.93;18.63;;;14.30;99.90;;;;;;5100089;28;20223;-50
2022/10/15 19:44:31;;;;;;;24.07;21.03;;;14.30;99.90;;;;;;5088954;28;20180;-48
2022/10/15 19:46:56;;;;;;;22.63;20.30;;;14.20;99.90;;;;;;5089868;28;20184;-52
2022/10/15 19:49:23;;;;;;;23.17;19.43;;;14.20;99.90;;;;;;5084133;28;20185;-50
2022/10/15 19:51:49;;;;;;;25.80;21.70;;;14.20;99.90;;;;;;5088920;28;20624;-49
2022/10/15 19:54:15;;;;;;;23.23;20.83;;;14.20;99.90;;;;;;5070876;28;20475;-45
2022/10/15 19:56:41;;;;;;;22.00;19.70;;;14.10;99.90;;;;;;5089767;28;20188;-54
2022/10/15 19:59:07;;;;;;;22.10;19.77;;;14.10;99.90;;;;;;5089464;28;20399;-51
2022/10/15 20:01:33;;;;;;;25.67;22.77;;;14.10;99.90;;;;;;5086114;28;20846;-50
2022/10/15 20:04:01;;;;;;;27.67;24.70;;;14.10;99.90;;;;;;5089670;28;20804;-49
2022/10/15 20:06:27;;;;;;;25.87;23.17;;;14.10;99.90;;;;;;5089800;28;20470;-48
2022/10/15 20:08:52;;;;;;;24.27;21.53;;;14.10;99.90;;;;;;5087157;28;20434;-50
2022/10/15 20:11:18;;;;;;;25.10;22.40;;;14.10;99.90;;;;;;5086209;28;20188;-51
2022/10/15 20:13:45;;;;;;;27.10;22.20;;;14.10;99.90;;;;;;5098948;28;20260;-52
2022/10/15 20:16:14;;;;;;;26.23;21.40;;;14.10;99.90;;;;;;5094566;28;20422;-52
2022/10/15 20:18:39;;;;;;;28.23;25.23;;;14.10;99.90;;;;;;5088023;28;20437;-53
2022/10/15 20:21:07;;;;;;;28.70;24.53;;;14.10;99.90;;;;;;5086741;28;20438;-47
2022/10/15 20:23:32;;;;;;;24.83;22.10;;;14.00;99.90;;;;;;5089444;28;20666;-52
2022/10/15 20:26:04;;;;;;;24.53;20.10;;;14.00;99.90;;;;;;5089433;28;20429;-52
2022/10/15 20:28:29;;;;;;;25.47;21.57;;;14.10;99.90;;;;;;5087444;28;20970;-49
2022/10/15 20:30:55;;;;;;;24.47;21.03;;;14.10;99.90;;;;;;5084011;28;20441;-47
2022/10/15 20:33:20;;;;;;;25.33;21.60;;;14.10;99.90;;;;;;5087615;28;20196;-50
2022/10/15 20:35:49;;;;;;;22.07;19.27;;;14.10;99.90;;;;;;5087828;28;20673;-52
2022/10/15 20:38:15;;;;;;;23.73;21.10;;;14.10;99.90;;;;;;5070882;28;20200;-52
2022/10/15 20:40:41;;;;;;;25.57;21.17;;;14.10;99.90;;;;;;5088559;28;20442;-47
2022/10/15 20:43:07;;;;;;;22.30;19.90;;;14.20;99.90;;;;;;5087270;28;20621;-49
2022/10/15 20:45:39;;;;;;;24.03;20.20;;;14.20;99.90;;;;;;5088703;28;20274;-51
2022/10/15 20:48:07;;;;;;;23.20;19.80;;;14.20;99.90;;;;;;5088638;28;21013;-50
2022/10/15 20:50:34;;;;;;;25.20;20.57;;;14.30;99.90;;;;;;5075096;28;21285;-49
2022/10/15 20:53:01;;;;;;;23.50;20.60;;;14.30;99.90;;;;;;5088177;28;20419;-51
2022/10/15 20:55:27;;;;;;;21.30;18.40;;;14.40;99.90;;;;;;5088853;28;20434;-49
2022/10/15 20:57:53;;;;;;;24.63;18.70;;;14.50;99.90;;;;;;5089108;28;20459;-51
2022/10/15 21:00:19;;;;;;;19.23;16.80;;;14.60;99.90;;;;;;5087848;28;20456;-49
2022/10/15 21:02:45;;;;;;;19.40;17.30;;;14.60;99.90;;;;;;5060904;28;20465;-51